Flight Track Log - Related Links

Times and Time Zones

All times are in EDT time to prevent confusion due to time zone crossing. See the SWA2001 flight status page for this flight to view local times or setup timezone preferences in your user account.

Time Position Orientation Groundspeed Altitude Reporting Facility
EDT Latitude Longitude Course Direction KTS MPH feet Rate Location/Type
Wed 01:05:31 AM 33.4333 -112.1333 270° West 203 234 6,500  Level Phoenix TRACON
Wed 01:06:19 AM 33.4667 -112.1667 320° Northwest 219 252 9,500 2,667 Climbing Phoenix TRACON
Wed 01:07:19 AM 33.4969 -112.1058 59° Northeast 259 298 11,300 2,430 Climbing Albuquerque Center
Wed 01:08:20 AM 33.5200 -112.0028 75° East 322 371 14,400 3,223 Climbing Albuquerque Center
Wed 01:09:20 AM 33.5458 -111.8928 74° East 343 395 17,800 3,372 Climbing Albuquerque Center
Wed 01:10:21 AM 33.5792 -111.7486 74° East 375 432 21,200 2,607 Climbing Albuquerque Center
Wed 01:11:22 AM 33.6100 -111.6142 75° East 413 475 23,100 2,033 Climbing Albuquerque Center
Wed 01:12:22 AM 33.6425 -111.4714 75° East 445 512 25,300 2,231 Climbing Albuquerque Center
Wed 01:13:23 AM 33.6753 -111.3228 75° East 462 532 27,600 2,016 Climbing Albuquerque Center
Wed 01:14:24 AM 33.7206 -111.1747 70° East 474 545 29,400 2,182 Climbing Albuquerque Center
Wed 01:15:24 AM 33.7742 -111.0272 66° East 484 557 32,000 2,380 Climbing Albuquerque Center
Wed 01:16:25 AM 33.8269 -110.8806 67° East 482 555 34,200 1,967 Climbing Albuquerque Center
Wed 01:17:26 AM 33.8781 -110.7342 67° East 479 551 36,000 1,785 Climbing Albuquerque Center
Wed 01:18:26 AM 33.9297 -110.5864 67° East 480 552 37,800 1,736 Climbing Albuquerque Center
Wed 01:19:27 AM 33.9819 -110.4392 67° East 480 552 39,500 1,587 Climbing Albuquerque Center
Wed 01:20:27 AM 34.0256 -110.2833 71° East 477 549 41,000 744 Climbing Albuquerque Center
Wed 01:21:28 AM 34.0672 -110.1306 72° East 479 551 41,000  Level Albuquerque Center
Wed 01:22:29 AM 34.1147 -109.9583 72° East 477 549 41,000  Level Albuquerque Center
Wed 01:23:29 AM 34.1547 -109.8147 71° East 473 544 41,000  Level Albuquerque Center
Wed 01:24:30 AM 34.1986 -109.6739 69° East 472 543 41,000  Level Albuquerque Center
Wed 01:25:31 AM 34.2486 -109.5083 70° East 470 541 41,000  Level Albuquerque Center
Wed 01:26:31 AM 34.2858 -109.3872 70° East 467 537 41,000  Level Albuquerque Center
Wed 01:27:32 AM 34.3322 -109.2278 71° East 466 536 41,000  Level Albuquerque Center
Wed 01:28:32 AM 34.3819 -109.0631 70° East 467 537 41,000  Level Albuquerque Center
Wed 01:29:33 AM 34.4242 -108.9206 70° East 469 540 41,000  Level Albuquerque Center
Wed 01:30:33 AM 34.4664 -108.7781 70° East 470 541 41,000  Level Albuquerque Center
Wed 01:31:34 AM 34.5158 -108.6122 70° East 470 541 41,000 -744 Level Albuquerque Center
Wed 01:32:34 AM 34.5558 -108.4736 71° East 467 537 39,500 -2,033 Descending Albuquerque Center
Wed 01:33:35 AM 34.5981 -108.3317 70° East 464 534 36,900 -3,273 Descending Albuquerque Center
Wed 01:34:35 AM 34.6461 -108.1625 71° East 471 542 32,900 -3,521 Descending Albuquerque Center
Wed 01:35:36 AM 34.6867 -108.0211 71° East 482 555 29,800 -3,295 Descending Albuquerque Center
Wed 01:36:37 AM 34.7297 -107.8697 71° East 479 551 26,200 -3,223 Descending Albuquerque Center
Wed 01:37:37 AM 34.7722 -107.7219 71° East 469 540 23,300 -3,050 Descending Albuquerque Center
Wed 01:38:37 AM 34.8164 -107.5683 71° East 434 499 20,100 -2,678 Descending Albuquerque Center
Wed 01:39:38 AM 34.8489 -107.4500 71° East 423 487 17,900 -2,164 Descending Albuquerque Center
Wed 01:40:39 AM 34.8842 -107.3278 71° East 385 443 15,700 -2,083 Descending Albuquerque Center
Wed 01:41:39 AM 34.9125 -107.2153 73° East 353 406 13,700 -2,182 Descending Albuquerque Center
Wed 01:42:40 AM 34.9442 -107.1072 70° East 341 392 11,300 -1,736 Descending Albuquerque Center
Wed 01:43:40 AM 34.9731 -107.0031 71° East 328 377 10,200 -1,350 Descending Albuquerque Center
Wed 01:44:40 AM 34.9989 -106.9094 71° East 300 345 8,600 -1,140 Descending Albuquerque Center
Wed 01:45:41 AM 35.0272 -106.8061 71° East 274 315 7,900 -793 Descending Albuquerque Center
Wed 01:46:41 AM 35.0458 -106.7306 73° East 239 275 7,000 -893 Descending Albuquerque Center
Wed 01:47:42 AM 35.0444 -106.6683 92° East 186 214 6,100 -843 Descending Albuquerque Center
Wed 01:48:42 AM 35.0442 -106.6178 90° East 153 176 5,300 -800 Descending Albuquerque Center
Wed 01:50:00 AM 35.0402 -106.6092 90° East  Level Estimated

Login

Don't have an account? Register now (free) for customized features, flight alerts, and more!